Terminal Aerodrome Forecast
Issued by NWS

Home | Current Version | Previous Version | Text Only | Print | Product List | Glossary Off
Versions: 1 2 3 4 5 6 7 8 9 10 11 12 13 14 15

309
FTUS43 KMPX 061732
TAFRWF
TAF
KRWF 061732Z 0618/0718 21016KT P6SM SCT050 BKN090
     FM070000 22016G24KT P6SM VCSH OVC090 WS020/28040KT
     FM070900 28018G28KT 6SM BLSN OVC090=

USA.gov is the U.S. government's official web portal to all federal, state and local government web resources and services.